Time;durP1;ratioP1;P1;durP2;ratioP2;P2;SDS_P1;SDS_P2;PMS_P1;PMS_P2;Temp;Humidity;BMP_temperature;BMP_pressure;BME280_temperature;BME280_humidity;BME280_pressure;Samples;Min_cycle;Max_cycle;Signal;HPM_P1;HPM_P2
2024/01/02 00:04:40;;;;;;;4.72;2.10;;;8.90;99.90;;;;;;10369046;28;20469;-70
2024/01/02 00:09:41;;;;;;;5.90;1.73;;;8.90;99.90;;;;;;10347142;28;20033;-69
2024/01/02 00:14:42;;;;;;;5.18;1.70;;;8.90;99.90;;;;;;10359601;28;20010;-69
2024/01/02 00:19:42;;;;;;;5.45;1.25;;;9.00;99.90;;;;;;10371865;28;20029;-70
2024/01/02 00:24:43;;;;;;;5.47;1.70;;;9.00;99.90;;;;;;10370395;28;20052;-69
2024/01/02 00:29:44;;;;;;;5.40;1.85;;;8.90;99.90;;;;;;10365154;28;20030;-70
2024/01/02 00:34:44;;;;;;;3.97;1.15;;;8.90;99.90;;;;;;10371727;28;20026;-70
2024/01/02 00:39:45;;;;;;;2.97;1.60;;;8.80;99.90;;;;;;10378546;28;20469;-69
2024/01/02 00:44:46;;;;;;;4.03;1.15;;;8.90;99.90;;;;;;10372458;28;20057;-69
2024/01/02 00:49:48;;;;;;;4.63;1.25;;;8.90;99.90;;;;;;10366934;28;20030;-70
2024/01/02 00:54:51;;;;;;;3.83;1.08;;;8.90;99.90;;;;;;10352383;28;20474;-70
2024/01/02 00:59:52;;;;;;;3.63;1.20;;;8.80;99.90;;;;;;10366471;28;20050;-69
2024/01/02 01:04:52;;;;;;;3.72;1.30;;;8.80;99.90;;;;;;10362070;28;20506;-70
2024/01/02 01:09:53;;;;;;;5.00;1.35;;;8.90;99.90;;;;;;10373966;28;20484;-69
2024/01/02 01:14:54;;;;;;;5.43;1.20;;;8.80;99.90;;;;;;10365361;28;20350;-70
2024/01/02 01:19:54;;;;;;;5.35;1.10;;;8.80;99.90;;;;;;10366081;28;20112;-69
2024/01/02 01:24:55;;;;;;;4.97;1.35;;;9.40;99.90;;;;;;10369251;28;20310;-70
2024/01/02 01:29:55;;;;;;;3.92;1.20;;;8.80;99.90;;;;;;10365468;28;20037;-70
2024/01/02 01:34:56;;;;;;;5.35;1.08;;;8.80;99.90;;;;;;10357584;28;20025;-69
2024/01/02 01:39:57;;;;;;;4.78;1.40;;;8.80;99.90;;;;;;10364178;28;20367;-69
2024/01/02 01:44:57;;;;;;;8.15;1.23;;;8.80;99.90;;;;;;10368884;28;20034;-69
2024/01/02 01:49:58;;;;;;;9.00;1.38;;;8.80;99.90;;;;;;10359546;28;20087;-69
2024/01/02 01:54:59;;;;;;;3.67;1.10;;;8.80;99.90;;;;;;10361283;28;20037;-69
2024/01/02 02:00:00;;;;;;;5.20;1.65;;;8.80;99.90;;;;;;10359205;28;20029;-69
2024/01/02 02:05:02;;;;;;;1.95;1.02;;;8.80;99.90;;;;;;10359922;28;20018;-70
2024/01/02 02:10:03;;;;;;;6.10;1.38;;;8.80;99.90;;;;;;10339929;28;20041;-69
2024/01/02 02:15:04;;;;;;;3.42;0.93;;;8.80;99.90;;;;;;10373799;28;20026;-70
2024/01/02 02:20:05;;;;;;;4.45;1.20;;;8.80;99.90;;;;;;10363806;28;20033;-70
2024/01/02 02:25:07;;;;;;;6.70;1.27;;;8.80;99.90;;;;;;10342825;28;20047;-69
2024/01/02 02:30:09;;;;;;;7.45;1.67;;;8.80;99.90;;;;;;10357701;28;20034;-69
2024/01/02 02:35:09;;;;;;;2.63;1.20;;;8.80;99.90;;;;;;10347044;28;20056;-70
2024/01/02 02:40:11;;;;;;;5.03;1.38;;;8.80;99.90;;;;;;10359235;28;20101;-69
2024/01/02 02:45:11;;;;;;;3.25;1.23;;;8.80;99.90;;;;;;10379376;28;20029;-69
2024/01/02 02:50:12;;;;;;;3.47;1.50;;;8.80;99.90;;;;;;10357609;28;20426;-69
2024/01/02 02:55:12;;;;;;;4.85;1.00;;;8.80;99.90;;;;;;10358143;28;20026;-69
2024/01/02 03:00:13;;;;;;;3.50;1.10;;;8.80;99.90;;;;;;10374126;28;20018;-68
2024/01/02 03:05:15;;;;;;;2.83;1.23;;;8.80;99.90;;;;;;10376628;28;20037;-69
2024/01/02 03:10:17;;;;;;;3.40;1.15;;;8.80;99.90;;;;;;10353416;28;20018;-69
2024/01/02 03:15:18;;;;;;;4.03;1.20;;;8.80;99.90;;;;;;10380370;28;20028;-68
2024/01/02 03:20:19;;;;;;;4.65;1.65;;;8.80;99.90;;;;;;10378542;28;20139;-69
2024/01/02 03:25:19;;;;;;;2.15;1.20;;;8.80;99.90;;;;;;10375649;28;20129;-68
2024/01/02 03:30:20;;;;;;;3.28;1.45;;;8.80;99.90;;;;;;10353801;28;20023;-69
2024/01/02 03:35:21;;;;;;;4.38;1.15;;;8.80;99.90;;;;;;10379122;28;20065;-69
2024/01/02 03:40:21;;;;;;;2.45;1.10;;;8.80;99.90;;;;;;10368558;28;20018;-69
2024/01/02 03:45:22;;;;;;;3.40;1.73;;;8.80;99.90;;;;;;10381953;28;20029;-69
2024/01/02 03:50:23;;;;;;;4.10;1.33;;;8.80;99.90;;;;;;10358833;28;20029;-69
2024/01/02 03:55:23;;;;;;;3.10;1.17;;;8.80;99.90;;;;;;10367804;28;20418;-69
2024/01/02 04:00:24;;;;;;;4.50;1.55;;;8.80;99.90;;;;;;10361955;28;20055;-69
2024/01/02 04:05:24;;;;;;;3.65;1.40;;;8.80;99.90;;;;;;10352295;28;20026;-70
2024/01/02 04:10:25;;;;;;;3.83;1.13;;;8.80;99.90;;;;;;10376766;28;20034;-70
2024/01/02 04:15:26;;;;;;;3.38;1.00;;;8.80;99.90;;;;;;10370430;28;20022;-68
2024/01/02 04:20:26;;;;;;;1.48;0.95;;;8.80;99.90;;;;;;10376959;28;20051;-69
2024/01/02 04:25:27;;;;;;;5.13;1.20;;;8.80;99.90;;;;;;10361851;28;20033;-69
2024/01/02 04:30:27;;;;;;;2.00;1.08;;;8.80;99.90;;;;;;10382205;28;20229;-69
2024/01/02 04:35:28;;;;;;;1.13;0.80;;;8.80;99.90;;;;;;10357260;28;20022;-69
2024/01/02 04:40:28;;;;;;;1.52;0.80;;;8.80;99.90;;;;;;10371243;28;20048;-69
2024/01/02 04:45:29;;;;;;;3.08;1.33;;;8.80;99.90;;;;;;10355983;28;20059;-69
2024/01/02 04:50:30;;;;;;;2.13;1.13;;;8.80;99.90;;;;;;10372970;28;20029;-69
2024/01/02 04:55:30;;;;;;;1.17;0.90;;;8.80;99.90;;;;;;10371795;28;20022;-69
2024/01/02 05:00:31;;;;;;;2.97;0.93;;;8.80;99.90;;;;;;10373866;28;20036;-69
2024/01/02 05:05:31;;;;;;;1.40;0.73;;;8.80;99.90;;;;;;10346529;28;20030;-69
2024/01/02 05:10:32;;;;;;;1.27;0.77;;;8.80;99.90;;;;;;10362169;28;20030;-69
2024/01/02 05:15:32;;;;;;;1.75;0.82;;;8.80;99.90;;;;;;10369531;28;20042;-69
2024/01/02 05:20:33;;;;;;;0.60;0.55;;;8.80;99.90;;;;;;10362980;28;20449;-69
2024/01/02 05:25:34;;;;;;;2.95;0.77;;;8.80;99.90;;;;;;10336992;28;20161;-69
2024/01/02 05:30:34;;;;;;;1.17;0.70;;;8.80;99.90;;;;;;10333274;28;20026;-68
2024/01/02 05:35:35;;;;;;;1.40;0.60;;;8.80;99.90;;;;;;10356890;28;20045;-68
2024/01/02 05:40:35;;;;;;;0.85;0.70;;;8.80;99.90;;;;;;10360505;28;20101;-69
2024/01/02 05:45:36;;;;;;;0.73;0.60;;;8.80;99.90;;;;;;10359763;28;20034;-68
2024/01/02 05:50:36;;;;;;;1.13;1.08;;;8.80;99.90;;;;;;10360127;28;20026;-69
2024/01/02 05:55:37;;;;;;;0.65;0.65;;;8.80;99.90;;;;;;10343103;28;20041;-69
2024/01/02 06:00:38;;;;;;;2.20;0.63;;;8.80;99.90;;;;;;10356740;28;20036;-69
2024/01/02 06:05:38;;;;;;;1.20;0.80;;;8.90;99.90;;;;;;10353874;28;20080;-69
2024/01/02 06:10:41;;;;;;;0.57;0.55;;;8.90;99.90;;;;;;10355138;28;20037;-70
2024/01/02 06:15:41;;;;;;;0.73;0.50;;;8.90;99.90;;;;;;10357412;28;20402;-69
2024/01/02 06:20:42;;;;;;;1.50;0.52;;;8.90;99.90;;;;;;10367470;28;20025;-69
2024/01/02 06:25:42;;;;;;;0.98;0.50;;;8.90;99.90;;;;;;10373398;28;20030;-69
2024/01/02 06:30:43;;;;;;;1.60;0.40;;;8.90;99.90;;;;;;10361454;28;20034;-70
2024/01/02 06:35:43;;;;;;;0.30;0.20;;;9.00;99.90;;;;;;10372136;28;20044;-71
2024/01/02 06:40:44;;;;;;;1.08;0.32;;;9.00;99.90;;;;;;10353590;28;20048;-67
2024/01/02 06:45:45;;;;;;;0.30;0.30;;;9.10;99.90;;;;;;10367689;28;20038;-68
2024/01/02 06:50:45;;;;;;;0.30;0.30;;;9.10;99.90;;;;;;10369127;28;20120;-68
2024/01/02 06:55:46;;;;;;;0.32;0.20;;;9.10;99.90;;;;;;10367267;28;20026;-68
2024/01/02 07:00:46;;;;;;;0.30;0.20;;;9.00;99.90;;;;;;10370844;28;20076;-68
2024/01/02 07:05:47;;;;;;;0.77;0.40;;;9.00;99.90;;;;;;10359182;28;20034;-69
2024/01/02 07:10:48;;;;;;;0.40;0.40;;;9.00;99.90;;;;;;10364964;28;20022;-67
2024/01/02 07:15:49;;;;;;;0.28;0.20;;;9.10;99.90;;;;;;10367578;28;20022;-68
2024/01/02 07:20:50;;;;;;;0.68;0.20;;;9.10;99.90;;;;;;10367635;28;20499;-68
2024/01/02 07:25:51;;;;;;;0.35;0.35;;;9.10;99.90;;;;;;10361354;28;20243;-68
2024/01/02 07:30:52;;;;;;;0.40;0.30;;;9.10;99.90;;;;;;10367343;28;20441;-67
2024/01/02 07:35:53;;;;;;;1.70;0.30;;;9.10;99.90;;;;;;10366809;28;20226;-68
2024/01/02 07:40:54;;;;;;;0.60;0.32;;;9.20;99.90;;;;;;10360172;28;20022;-68
2024/01/02 07:45:55;;;;;;;1.77;0.40;;;9.20;99.90;;;;;;10359229;28;20030;-67
2024/01/02 07:50:56;;;;;;;0.93;0.50;;;9.20;99.90;;;;;;10365499;28;20112;-69
2024/01/02 07:55:56;;;;;;;0.40;0.40;;;9.20;99.90;;;;;;10367466;28;20040;-69
2024/01/02 08:00:57;;;;;;;0.73;0.47;;;9.20;99.90;;;;;;10360605;28;20026;-68
2024/01/02 08:05:57;;;;;;;0.32;0.32;;;9.20;99.90;;;;;;10364356;28;20037;-69
2024/01/02 08:10:58;;;;;;;1.13;0.40;;;9.20;99.90;;;;;;10334062;28;20025;-69
2024/01/02 08:15:58;;;;;;;1.17;0.40;;;9.30;99.90;;;;;;10363470;28;20492;-69
2024/01/02 08:20:59;;;;;;;0.60;0.60;;;9.30;99.90;;;;;;10359941;28;20036;-68
2024/01/02 08:26:00;;;;;;;2.65;0.68;;;9.30;99.90;;;;;;10350037;28;20022;-69
2024/01/02 08:31:01;;;;;;;0.55;0.40;;;9.30;99.90;;;;;;10363963;28;20036;-68
2024/01/02 08:36:02;;;;;;;2.45;0.60;;;9.30;99.90;;;;;;10367896;28;20470;-67
2024/01/02 08:41:03;;;;;;;0.88;0.68;;;9.30;99.90;;;;;;10371953;28;20075;-67
2024/01/02 08:46:06;;;;;;;1.63;0.57;;;9.40;99.90;;;;;;10375203;28;20097;-68
2024/01/02 08:51:08;;;;;;;1.65;0.63;;;9.40;99.90;;;;;;10361706;28;20120;-68
2024/01/02 08:56:09;;;;;;;3.80;0.68;;;9.40;99.90;;;;;;10363287;28;20034;-67
2024/01/02 09:01:11;;;;;;;1.40;0.40;;;9.50;99.90;;;;;;10368079;28;20473;-69
2024/01/02 09:06:17;;;;;;;3.45;1.08;;;9.50;99.90;;;;;;10365618;28;20041;-68
2024/01/02 09:11:19;;;;;;;2.28;0.70;;;9.50;99.90;;;;;;10367917;28;20142;-68
2024/01/02 09:16:20;;;;;;;4.47;0.50;;;9.50;99.90;;;;;;10366415;28;20034;-68
2024/01/02 09:21:21;;;;;;;3.80;0.65;;;9.50;99.90;;;;;;10366886;28;20026;-68
2024/01/02 09:26:25;;;;;;;3.50;0.70;;;9.50;99.90;;;;;;10364016;28;20124;-68
2024/01/02 09:31:30;;;;;;;2.22;0.40;;;9.60;99.90;;;;;;10354604;28;20034;-68
2024/01/02 09:36:30;;;;;;;2.83;0.65;;;9.60;99.90;;;;;;10360780;28;20044;-68
2024/01/02 09:42:05;;;;;;;5.15;1.00;;;9.60;99.90;;;;;;10357132;28;20217;-69
2024/01/02 09:47:40;;;;;;;1.63;0.68;;;9.70;99.90;;;;;;10372518;28;20441;-69
2024/01/02 09:53:00;;;;;;;3.28;0.50;;;9.70;99.90;;;;;;10375497;28;20041;-69
2024/01/02 09:58:11;;;;;;;2.55;0.60;;;9.70;99.90;;;;;;10370044;28;20524;-69
2024/01/02 10:03:18;;;;;;;2.80;0.85;;;9.70;99.90;;;;;;10340616;28;20197;-69
2024/01/02 10:09:02;;;;;;;2.67;0.90;;;9.70;99.90;;;;;;10365434;28;20037;-69
2024/01/02 10:14:15;;;;;;;5.68;1.02;;;9.70;99.90;;;;;;10357318;28;20026;-69
2024/01/02 10:19:31;;;;;;;3.28;1.40;;;9.80;99.90;;;;;;10358446;28;20296;-69
2024/01/02 10:24:46;;;;;;;9.90;1.27;;;9.80;99.90;;;;;;10361001;28;20112;-69
2024/01/02 10:30:06;;;;;;;4.28;0.60;;;9.80;99.90;;;;;;10353951;28;20018;-69
2024/01/02 10:35:36;;;;;;;8.55;0.98;;;9.80;99.90;;;;;;10371652;28;20121;-69
2024/01/02 10:40:41;;;;;;;7.72;1.35;;;9.80;99.90;;;;;;10362194;28;20103;-68
2024/01/02 10:45:56;;;;;;;6.93;0.77;;;9.80;99.90;;;;;;10368938;28;20029;-68
2024/01/02 10:51:10;;;;;;;3.30;1.00;;;9.80;99.90;;;;;;10359668;28;20556;-68
2024/01/02 10:56:17;;;;;;;5.00;1.15;;;9.90;99.90;;;;;;10365068;28;20021;-69
2024/01/02 11:01:19;;;;;;;4.05;1.00;;;9.90;99.90;;;;;;10360453;28;20061;-68
2024/01/02 11:06:45;;;;;;;9.15;1.15;;;9.90;99.90;;;;;;10365145;28;20096;-68
2024/01/02 11:11:50;;;;;;;6.15;1.25;;;9.90;99.90;;;;;;10377998;28;20466;-68
2024/01/02 11:16:53;;;;;;;8.60;1.52;;;9.90;99.90;;;;;;10379794;28;20572;-68
2024/01/02 11:22:03;;;;;;;6.15;1.20;;;9.90;99.90;;;;;;10373527;28;20031;-68
2024/01/02 11:27:05;;;;;;;7.95;1.55;;;10.00;99.90;;;;;;10366180;28;20584;-69
2024/01/02 11:32:11;;;;;;;8.00;1.50;;;10.00;99.90;;;;;;10368873;28;20440;-67
2024/01/02 11:37:37;;;;;;;5.03;1.48;;;10.00;99.90;;;;;;10349605;28;20097;-67
2024/01/02 11:42:48;;;;;;;7.53;2.00;;;10.00;99.90;;;;;;10365650;28;20159;-67
2024/01/02 11:48:06;;;;;;;8.07;1.60;;;10.00;99.90;;;;;;10361625;28;20330;-67
2024/01/02 11:53:23;;;;;;;8.65;1.42;;;10.00;99.90;;;;;;10367074;28;20371;-67
2024/01/02 11:58:38;;;;;;;5.55;1.20;;;10.10;99.90;;;;;;10354595;28;20129;-68
2024/01/02 12:03:53;;;;;;;6.07;1.60;;;10.10;99.90;;;;;;10364396;28;20048;-68
2024/01/02 12:09:12;;;;;;;10.40;1.67;;;10.10;99.90;;;;;;10369670;28;20077;-67
2024/01/02 12:14:29;;;;;;;8.48;1.52;;;10.10;99.90;;;;;;10372962;28;20026;-68
2024/01/02 12:19:30;;;;;;;5.47;1.25;;;10.10;99.90;;;;;;10372058;28;20331;-69
2024/01/02 12:24:31;;;;;;;6.53;1.83;;;10.10;99.90;;;;;;10361290;28;20194;-71
2024/01/02 12:29:55;;;;;;;6.95;1.73;;;10.10;99.90;;;;;;10357167;28;20395;-71
2024/01/02 12:35:07;;;;;;;12.77;2.00;;;10.10;99.90;;;;;;10367779;28;20026;-69
2024/01/02 12:40:10;;;;;;;8.73;1.80;;;10.10;99.90;;;;;;10353524;28;20029;-69
2024/01/02 12:45:18;;;;;;;12.63;1.90;;;10.10;99.90;;;;;;10342760;28;20069;-70
2024/01/02 12:50:21;;;;;;;9.43;2.00;;;10.10;99.90;;;;;;10361961;28;20026;-70
2024/01/02 12:55:25;;;;;;;7.53;1.77;;;10.10;99.90;;;;;;10346435;28;20135;-71
2024/01/02 13:00:26;;;;;;;11.20;2.10;;;10.10;99.90;;;;;;10367033;28;20104;-70
2024/01/02 13:05:28;;;;;;;7.15;1.95;;;10.20;99.90;;;;;;10361579;28;20496;-71
2024/01/02 13:10:29;;;;;;;8.63;2.20;;;10.20;99.90;;;;;;10362011;28;20041;-70
2024/01/02 13:15:30;;;;;;;6.00;2.05;;;10.20;99.90;;;;;;10352998;28;20042;-70
2024/01/02 13:20:31;;;;;;;13.55;2.33;;;10.20;99.90;;;;;;10362219;28;20868;-70
2024/01/02 13:25:39;;;;;;;10.05;2.38;;;10.30;99.90;;;;;;10357626;28;20021;-68
2024/01/02 13:30:42;;;;;;;11.15;2.83;;;10.30;99.90;;;;;;10358548;28;20044;-69
2024/01/02 13:35:59;;;;;;;9.15;2.28;;;10.30;99.90;;;;;;10360113;28;20386;-69
2024/01/02 13:41:04;;;;;;;7.95;2.58;;;10.30;99.90;;;;;;10352779;28;20152;-70
2024/01/02 13:46:22;;;;;;;9.23;2.70;;;10.30;99.90;;;;;;10340542;28;20437;-69
2024/01/02 13:51:26;;;;;;;11.27;2.80;;;10.30;99.90;;;;;;10357518;28;20057;-70
2024/01/02 13:56:29;;;;;;;9.88;2.60;;;10.30;99.90;;;;;;10358239;28;20133;-69
2024/01/02 14:01:33;;;;;;;9.77;2.72;;;10.30;99.90;;;;;;10365325;28;20067;-70
2024/01/02 14:06:37;;;;;;;7.70;2.65;;;10.30;99.90;;;;;;10369036;28;20021;-69
2024/01/02 14:11:56;;;;;;;6.43;2.33;;;10.30;99.90;;;;;;10371223;28;20033;-70
2024/01/02 14:17:00;;;;;;;8.75;2.78;;;10.30;99.90;;;;;;10364000;28;20786;-69
2024/01/02 14:22:17;;;;;;;7.50;2.70;;;10.30;99.90;;;;;;10370564;28;20113;-71
2024/01/02 14:27:24;;;;;;;4.85;2.35;;;10.30;99.90;;;;;;10353172;28;20429;-72
2024/01/02 14:32:47;;;;;;;6.28;2.45;;;10.50;99.90;;;;;;10355607;28;20026;-70
2024/01/02 14:38:07;;;;;;;4.20;1.70;;;10.40;99.90;;;;;;10355523;28;20026;-68
2024/01/02 14:43:32;;;;;;;2.85;1.70;;;10.40;99.90;;;;;;10373672;28;20049;-69
2024/01/02 14:48:52;;;;;;;3.03;1.38;;;10.40;99.90;;;;;;10365706;28;20036;-69
2024/01/02 14:54:27;;;;;;;1.73;1.13;;;10.40;99.90;;;;;;10374764;28;20087;-68
2024/01/02 14:59:33;;;;;;;1.75;1.25;;;10.40;99.90;;;;;;10369911;28;20038;-68
2024/01/02 15:04:56;;;;;;;1.50;0.95;;;11.50;99.90;;;;;;10373527;28;20041;-69
2024/01/02 15:10:12;;;;;;;2.30;1.08;;;10.40;99.90;;;;;;10316513;28;20038;-68
2024/01/02 15:15:21;;;;;;;6.32;1.27;;;10.40;99.90;;;;;;10362329;28;20026;-69
2024/01/02 15:20:47;;;;;;;1.70;1.10;;;10.40;99.90;;;;;;10363130;28;20392;-69
2024/01/02 15:25:54;;;;;;;3.33;1.35;;;10.50;99.90;;;;;;10350385;28;20317;-69
2024/01/02 15:31:02;;;;;;;1.63;0.80;;;10.50;99.90;;;;;;10346594;28;20293;-69
2024/01/02 15:36:08;;;;;;;1.50;0.82;;;10.50;99.90;;;;;;10369440;28;20563;-69
2024/01/02 15:41:15;;;;;;;2.35;0.93;;;10.40;99.90;;;;;;10358635;28;20030;-69
2024/01/02 15:46:55;;;;;;;1.38;0.88;;;10.40;99.90;;;;;;10363218;28;20049;-69
2024/01/02 15:52:05;;;;;;;0.70;0.70;;;10.40;99.90;;;;;;10348394;28;20060;-69
2024/01/02 15:57:07;;;;;;;1.10;1.00;;;10.40;99.90;;;;;;10351319;28;20466;-68
2024/01/02 16:02:28;;;;;;;0.65;0.57;;;10.30;99.90;;;;;;10352651;28;20422;-68
2024/01/02 16:07:59;;;;;;;1.25;0.80;;;10.40;99.90;;;;;;10359641;28;20037;-69
2024/01/02 16:13:09;;;;;;;1.10;0.90;;;10.40;99.90;;;;;;10356950;28;20030;-68
2024/01/02 16:19:04;;;;;;;1.02;0.65;;;10.30;99.90;;;;;;10359213;28;20025;-69
2024/01/02 16:24:43;;;;;;;1.40;0.70;;;10.40;99.90;;;;;;10312655;28;20057;-69
2024/01/02 16:29:56;;;;;;;1.23;0.80;;;10.40;99.90;;;;;;10356330;28;20033;-68
2024/01/02 16:35:19;;;;;;;1.02;1.00;;;10.40;99.90;;;;;;10364777;28;20112;-77
2024/01/02 16:40:45;;;;;;;1.75;1.40;;;10.40;99.90;;;;;;10366237;28;20022;-70
2024/01/02 16:45:47;;;;;;;2.00;1.40;;;10.40;99.90;;;;;;10357385;28;20036;-70
2024/01/02 16:50:51;;;;;;;1.65;1.50;;;10.40;99.90;;;;;;10361234;28;20022;-70
2024/01/02 16:55:52;;;;;;;2.13;1.50;;;10.40;99.90;;;;;;10363472;28;20018;-69
2024/01/02 17:00:56;;;;;;;1.73;1.58;;;10.80;99.90;;;;;;10352586;28;20037;-69
2024/01/02 17:06:02;;;;;;;2.95;1.80;;;10.50;99.90;;;;;;10353295;28;20030;-69
2024/01/02 17:11:07;;;;;;;1.98;1.58;;;10.50;99.90;;;;;;10358062;28;20025;-69
2024/01/02 17:16:08;;;;;;;1.73;1.63;;;10.50;99.90;;;;;;10357764;28;20065;-68
2024/01/02 17:21:09;;;;;;;2.03;1.63;;;10.50;99.90;;;;;;10360106;28;20084;-68
2024/01/02 17:26:10;;;;;;;2.55;2.10;;;10.50;99.90;;;;;;10360371;28;20430;-68
2024/01/02 17:31:12;;;;;;;2.35;1.60;;;10.50;99.90;;;;;;10355651;28;20238;-68
2024/01/02 17:36:15;;;;;;;1.73;1.60;;;10.50;99.90;;;;;;10361855;28;20026;-68
2024/01/02 17:41:15;;;;;;;1.65;1.48;;;10.50;99.90;;;;;;10339499;28;20030;-68
2024/01/02 17:46:16;;;;;;;2.05;1.33;;;10.50;99.90;;;;;;10361257;28;20037;-68
2024/01/02 17:51:18;;;;;;;1.90;1.17;;;10.50;99.90;;;;;;10342818;28;20108;-68
2024/01/02 17:56:19;;;;;;;1.55;1.20;;;10.50;99.90;;;;;;10347059;28;20038;-68
2024/01/02 18:01:22;;;;;;;1.00;0.90;;;10.50;99.90;;;;;;10361102;28;20482;-68
2024/01/02 18:06:47;;;;;;;1.08;0.98;;;10.50;99.90;;;;;;10355926;28;20184;-68
2024/01/02 18:11:53;;;;;;;1.67;1.20;;;10.60;99.90;;;;;;10352677;28;20030;-69
2024/01/02 18:17:15;;;;;;;1.00;0.90;;;10.50;99.90;;;;;;10359210;28;20030;-69
2024/01/02 18:22:45;;;;;;;0.95;0.80;;;10.60;99.90;;;;;;10348789;28;20398;-69
2024/01/02 18:28:13;;;;;;;1.00;0.90;;;10.60;99.90;;;;;;10360841;28;20271;-69
2024/01/02 18:33:21;;;;;;;2.92;1.02;;;10.60;99.90;;;;;;10367592;28;20026;-69
2024/01/02 18:38:37;;;;;;;1.38;0.82;;;10.60;99.90;;;;;;10370627;28;20052;-69
2024/01/02 18:43:59;;;;;;;1.08;0.80;;;10.60;99.90;;;;;;10367651;28;20037;-68
2024/01/02 18:49:05;;;;;;;2.42;0.90;;;10.60;99.90;;;;;;10369455;28;20029;-69
2024/01/02 18:54:13;;;;;;;0.75;0.70;;;10.60;99.90;;;;;;10371603;28;20022;-69
2024/01/02 18:59:13;;;;;;;1.05;0.90;;;10.60;99.90;;;;;;10371079;28;20017;-68
2024/01/02 19:04:14;;;;;;;1.52;0.70;;;10.60;99.90;;;;;;10372289;28;20037;-69
2024/01/02 19:09:16;;;;;;;0.75;0.75;;;10.70;99.90;;;;;;10364149;28;20018;-69
2024/01/02 19:14:17;;;;;;;1.73;0.77;;;10.80;99.90;;;;;;10374310;28;20034;-69
2024/01/02 19:19:17;;;;;;;1.15;0.95;;;10.30;99.90;;;;;;10374956;28;20030;-69
2024/01/02 19:24:18;;;;;;;2.47;0.80;;;10.80;99.90;;;;;;10366892;28;20033;-68
2024/01/02 19:29:19;;;;;;;2.42;0.80;;;10.80;99.90;;;;;;10374702;28;20068;-69
2024/01/02 19:34:19;;;;;;;1.98;0.98;;;10.80;99.90;;;;;;10363914;28;20041;-68
2024/01/02 19:39:20;;;;;;;1.38;0.65;;;10.80;99.90;;;;;;10375008;28;20136;-68
2024/01/02 19:44:24;;;;;;;2.72;1.02;;;10.70;99.90;;;;;;10371461;28;20449;-68
2024/01/02 19:49:24;;;;;;;1.98;1.23;;;10.80;99.90;;;;;;10376927;28;20022;-69
2024/01/02 19:54:25;;;;;;;4.00;0.80;;;10.70;99.90;;;;;;10362365;28;20390;-68
2024/01/02 19:59:26;;;;;;;5.68;1.15;;;10.70;99.90;;;;;;10365289;28;20034;-68
2024/01/02 20:04:34;;;;;;;2.40;0.73;;;10.80;99.90;;;;;;10364269;28;20123;-69
2024/01/02 20:09:38;;;;;;;4.53;0.90;;;10.80;99.90;;;;;;10366294;28;20042;-69
2024/01/02 20:14:48;;;;;;;3.55;1.05;;;10.80;99.90;;;;;;10372426;28;20022;-69
2024/01/02 20:19:52;;;;;;;4.57;1.05;;;10.80;99.90;;;;;;10372128;28;20068;-69
2024/01/02 20:24:56;;;;;;;4.15;0.88;;;10.80;99.90;;;;;;10362799;28;20036;-69
2024/01/02 20:29:57;;;;;;;4.10;0.85;;;10.80;99.90;;;;;;10363636;28;20080;-69
2024/01/02 20:35:03;;;;;;;3.55;0.93;;;10.70;99.90;;;;;;10341423;28;20030;-69
2024/01/02 20:40:29;;;;;;;4.05;1.10;;;10.80;99.90;;;;;;10361022;28;20947;-69
2024/01/02 20:45:31;;;;;;;5.15;0.80;;;10.80;99.90;;;;;;10366180;28;20033;-68
2024/01/02 20:50:34;;;;;;;4.00;1.35;;;10.70;99.90;;;;;;10370093;28;20397;-69
2024/01/02 20:55:39;;;;;;;4.70;1.10;;;10.70;99.90;;;;;;10368292;28;20054;-69
2024/01/02 21:00:40;;;;;;;3.17;1.10;;;10.70;99.90;;;;;;10371769;28;20117;-68
2024/01/02 21:05:47;;;;;;;7.75;1.95;;;10.70;99.90;;;;;;10379354;28;20120;-68
2024/01/02 21:10:52;;;;;;;5.35;1.23;;;10.70;99.90;;;;;;10366729;28;20042;-69
2024/01/02 21:15:52;;;;;;;7.30;1.48;;;10.70;99.90;;;;;;10357127;28;20454;-68
2024/01/02 21:20:53;;;;;;;7.45;1.25;;;10.70;99.90;;;;;;10362660;28;20113;-69
2024/01/02 21:25:54;;;;;;;5.82;1.13;;;10.70;99.90;;;;;;10362399;28;20229;-69
2024/01/02 21:30:54;;;;;;;3.55;0.85;;;10.70;99.90;;;;;;10362779;28;20026;-69
2024/01/02 21:35:55;;;;;;;8.85;1.15;;;11.40;99.90;;;;;;10347931;28;20470;-69
2024/01/02 21:41:09;;;;;;;7.65;1.10;;;10.60;99.90;;;;;;10361275;28;20030;-68
2024/01/02 21:46:18;;;;;;;2.13;0.60;;;10.70;99.90;;;;;;10358861;28;20128;-68
2024/01/02 21:51:20;;;;;;;4.07;0.80;;;10.60;99.90;;;;;;10370128;28;20036;-68
2024/01/02 21:56:30;;;;;;;4.78;1.10;;;10.60;99.90;;;;;;10368263;28;20025;-69
2024/01/02 22:01:31;;;;;;;2.88;0.77;;;10.60;99.90;;;;;;10360104;28;20033;-69
2024/01/02 22:06:37;;;;;;;7.25;0.82;;;10.60;99.90;;;;;;10362535;28;20026;-68
2024/01/02 22:11:47;;;;;;;6.82;1.00;;;10.60;99.90;;;;;;10339674;28;20069;-69
2024/01/02 22:16:48;;;;;;;4.95;0.70;;;10.60;99.90;;;;;;10356749;28;20053;-68
2024/01/02 22:22:03;;;;;;;3.88;0.73;;;10.60;99.90;;;;;;10341846;28;20188;-68
2024/01/02 22:27:16;;;;;;;3.88;0.60;;;10.60;99.90;;;;;;10352352;28;20112;-68
2024/01/02 22:32:17;;;;;;;2.80;0.80;;;10.60;99.90;;;;;;10360742;28;20021;-69
2024/01/02 22:37:22;;;;;;;2.88;0.70;;;10.60;99.90;;;;;;10367963;28;20109;-69
2024/01/02 22:42:25;;;;;;;6.40;0.50;;;10.60;99.90;;;;;;10357236;28;20038;-69
2024/01/02 22:47:26;;;;;;;4.35;0.77;;;10.60;99.90;;;;;;10354925;28;20061;-68
2024/01/02 22:52:26;;;;;;;2.28;0.80;;;10.60;99.90;;;;;;10357396;28;20738;-68
2024/01/02 22:57:27;;;;;;;3.35;0.52;;;10.60;99.90;;;;;;10357659;28;20250;-68
2024/01/02 23:02:28;;;;;;;6.32;1.00;;;10.60;99.90;;;;;;10369722;28;20087;-68
2024/01/02 23:07:28;;;;;;;3.50;0.80;;;10.60;99.90;;;;;;10372509;28;20033;-68
2024/01/02 23:12:36;;;;;;;1.95;0.50;;;10.60;99.90;;;;;;10378422;28;20454;-69
2024/01/02 23:17:47;;;;;;;5.20;1.37;;;10.50;99.90;;;;;;10370181;28;20022;-68
2024/01/02 23:22:51;;;;;;;2.05;0.50;;;10.60;99.90;;;;;;10360459;28;20054;-69
2024/01/02 23:27:52;;;;;;;3.17;0.75;;;10.60;99.90;;;;;;10369227;28;20478;-68
2024/01/02 23:32:52;;;;;;;4.32;0.68;;;10.50;99.90;;;;;;10354658;28;20028;-68
2024/01/02 23:37:53;;;;;;;5.95;0.75;;;11.60;99.90;;;;;;10366230;28;20022;-68
2024/01/02 23:42:54;;;;;;;2.17;0.45;;;10.50;99.90;;;;;;10353909;28;20114;-68
2024/01/02 23:47:54;;;;;;;5.25;0.70;;;10.50;99.90;;;;;;10369897;28;20018;-68
2024/01/02 23:53:01;;;;;;;4.60;0.60;;;11.30;99.90;;;;;;10375399;28;20029;-68
2024/01/02 23:58:04;;;;;;;2.42;0.60;;;10.50;99.90;;;;;;10372840;28;20280;-68
